MWCR Airport Information

Runway Information
Runway 08 Length 7021 ft width 148 ft
Elevation 8 ft Threshold 0 ft Heading 76
Runway 26 Length 7021 ft Width 148 ft
Elevation 6 ft Threshold 400 ft Heading 256
Airport Frequencies
Type A/D Name GRAND CAYM Frequency 120.2 MHZ
Type ATIS Name ATIS Frequency 132.35 MHZ
Type CNTR Name KINGSTON C Frequency 128.1 MHZ
Type GND Name GND Frequency 121.9 MHZ
Type TWR Name TWR Frequency 118 MHZ
Airport Navaids
Type VOR-DME Name Grand Cayman Frequency 115600 KHZ
Type NDB Name Grand Cayman Frequency 344 KHZ
Airport Weather Information & NOTAM
ADDS - METARS form results

(0827 UTC 15 November 2018)
Data provider http://aviationweather.gov/metar/data/
 
Forecast for: MWCR (GRND CAYMAN/OWEN, KY)
Text: TAF MWCR 142300Z 1500/1524 06009KT 9999 VCSH FEW018
Forecast period: 0000 UTC 15 November 2018 to 0000 UTC 16 November 2018
Forecast type: FROM: standard forecast or significant change
Winds: from the ENE (60 degrees) at 10 MPH (9 knots; 4.6 m/s)
Visibility: 6 or more miles 10+ km)
Ceiling: at least 12,000 feet AGL
Clouds: few clouds at 1800 feet AGL
Weather: VCSH  (showers in vicinity)
Text: PROB30
Forecast period: 2000 UTC 15 November 2018 to 0000 UTC 16 November 2018
Forecast type: TEMPORARY: The following changes expected for less than half the time period
Visibility: missing
Ceiling: at least 12,000 feet AGL
Clouds: scattered clouds at 1600 feet AGL
Weather: SHRA  (rain showers)